createdAt,value
2022-12-23T00:00:47.982Z,18.95
2022-12-23T00:03:50.380Z,18.70
2022-12-23T00:07:12.013Z,18.80
2022-12-23T00:10:13.875Z,19.33
2022-12-23T00:13:30.032Z,17.90
2022-12-23T00:16:45.138Z,19.40
2022-12-23T00:19:47.065Z,19.08
2022-12-23T00:23:08.983Z,18.98
2022-12-23T00:26:23.778Z,18.30
2022-12-23T00:29:32.045Z,20.27
2022-12-23T00:32:40.641Z,19.08
2022-12-23T00:35:50.092Z,20.00
2022-12-23T00:39:00.039Z,19.23
2022-12-23T00:42:16.068Z,20.33
2022-12-23T00:45:24.645Z,19.13
2022-12-23T00:48:39.006Z,19.77
2022-12-23T00:51:48.038Z,19.10
2022-12-23T00:55:03.410Z,20.40
2022-12-23T00:58:12.042Z,19.87
2022-12-23T01:01:27.285Z,20.03
2022-12-23T01:04:36.072Z,20.75
2022-12-23T01:07:46.874Z,20.75
2022-12-23T01:10:56.052Z,22.30
2022-12-23T01:14:04.773Z,21.63
2022-12-23T01:17:14.164Z,20.60
2022-12-23T01:20:36.026Z,21.92
2022-12-23T01:23:38.233Z,21.58
2022-12-23T01:26:53.011Z,20.98
2022-12-23T01:29:58.027Z,22.53
2022-12-23T01:33:13.118Z,22.20
2022-12-23T01:36:15.185Z,20.55
2022-12-23T01:39:30.053Z,22.95
2022-12-23T01:42:39.031Z,20.98
2022-12-23T01:45:48.035Z,25.40
2022-12-23T01:48:59.058Z,23.20
2022-12-23T01:52:08.085Z,23.98
2022-12-23T01:55:18.208Z,25.58
2022-12-23T01:58:39.344Z,25.50
2022-12-23T02:01:54.233Z,24.63
2022-12-23T02:05:00.545Z,25.70
2022-12-23T02:08:15.108Z,25.02
2022-12-23T02:11:38.093Z,26.90
2022-12-23T02:15:21.082Z,25.92
2022-12-23T02:19:02.333Z,27.00
2022-12-23T02:22:42.036Z,26.97
2022-12-23T02:26:30.025Z,26.35
2022-12-23T02:30:08.066Z,27.05
2022-12-23T02:33:32.098Z,26.58
2022-12-23T02:37:00.094Z,28.23
2022-12-23T02:40:21.084Z,27.07
2022-12-23T02:43:53.091Z,26.33
2022-12-23T02:47:07.045Z,26.62
2022-12-23T02:50:30.061Z,27.30
2022-12-23T02:53:47.096Z,28.13
2022-12-23T02:57:04.115Z,26.60
2022-12-23T03:00:14.056Z,29.30
2022-12-23T03:03:31.138Z,29.25
2022-12-23T03:06:41.835Z,29.40
2022-12-23T03:10:13.260Z,28.43
2022-12-23T03:13:56.078Z,27.20
2022-12-23T03:17:40.060Z,29.98
2022-12-23T03:21:20.126Z,32.42
2022-12-23T03:24:53.111Z,31.40
2022-12-23T03:28:21.413Z,30.33
2022-12-23T03:31:40.183Z,30.13
2022-12-23T03:34:52.244Z,32.63
2022-12-23T03:38:03.125Z,34.25
2022-12-23T03:41:26.191Z,32.53
2022-12-23T03:44:35.696Z,33.37
2022-12-23T03:47:57.161Z,32.90
2022-12-23T03:51:06.785Z,33.78
2022-12-23T03:54:26.096Z,33.53
2022-12-23T03:57:45.246Z,34.55
2022-12-23T04:01:18.146Z,33.00
2022-12-23T04:04:46.099Z,32.83
2022-12-23T04:08:03.627Z,35.08
2022-12-23T04:11:15.134Z,31.85
2022-12-23T04:14:24.007Z,32.78
2022-12-23T04:17:33.155Z,33.40
2022-12-23T04:20:49.494Z,31.87
2022-12-23T04:23:58.146Z,33.53
2022-12-23T04:27:14.168Z,33.90
2022-12-23T04:30:26.683Z,31.05
2022-12-23T04:33:40.136Z,33.00
2022-12-23T04:36:55.109Z,32.70
2022-12-23T04:39:57.058Z,30.60
2022-12-23T04:43:12.114Z,28.83
2022-12-23T04:46:14.102Z,29.37
2022-12-23T04:49:29.120Z,27.37
2022-12-23T04:52:38.113Z,28.70
2022-12-23T04:55:51.031Z,28.50
2022-12-23T04:59:00.208Z,28.83
2022-12-23T05:02:09.534Z,27.08
2022-12-23T05:05:18.148Z,26.27
2022-12-23T05:08:27.828Z,25.93
2022-12-23T05:11:43.167Z,26.95
2022-12-23T05:14:45.068Z,24.48
2022-12-23T05:18:00.272Z,24.48
2022-12-23T05:21:11.792Z,24.63
2022-12-23T05:24:26.170Z,24.80
2022-12-23T05:27:34.185Z,22.55
2022-12-23T05:30:45.576Z,23.80
2022-12-23T05:33:54.256Z,23.23
2022-12-23T05:37:02.795Z,23.13
2022-12-23T05:40:12.139Z,23.20
2022-12-23T05:43:21.979Z,22.70
2022-12-23T05:46:30.230Z,24.27
2022-12-23T05:49:45.221Z,23.38
2022-12-23T05:52:54.154Z,23.93
2022-12-23T05:56:05.505Z,20.70
2022-12-23T05:59:14.202Z,20.62
2022-12-23T06:02:29.462Z,22.65
2022-12-23T06:05:46.149Z,21.17
2022-12-23T06:08:48.077Z,20.40
2022-12-23T06:12:03.194Z,19.70
2022-12-23T06:15:15.172Z,20.00
2022-12-23T06:18:23.844Z,20.08
2022-12-23T06:21:45.253Z,20.10
2022-12-23T06:24:54.185Z,19.13
2022-12-23T06:28:03.064Z,21.93
2022-12-23T06:31:11.188Z,19.33
2022-12-23T06:34:22.031Z,20.77
2022-12-23T06:37:30.136Z,19.77
2022-12-23T06:40:40.442Z,20.27
2022-12-23T06:43:54.142Z,18.17
2022-12-23T06:47:12.159Z,17.80
2022-12-23T06:50:21.156Z,18.45
2022-12-23T06:53:30.383Z,19.15
2022-12-23T06:56:40.177Z,21.63
2022-12-23T06:59:48.796Z,17.47
2022-12-23T07:03:00.339Z,17.95
2022-12-23T07:06:09.069Z,18.35
2022-12-23T07:09:17.219Z,17.30
2022-12-23T07:12:32.207Z,18.20
2022-12-23T07:15:34.265Z,19.27
2022-12-23T07:18:49.207Z,18.75
2022-12-23T07:21:57.526Z,18.55
2022-12-23T07:25:13.245Z,19.27
2022-12-23T07:28:31.322Z,17.97
2022-12-23T07:31:41.293Z,17.60
2022-12-23T07:34:56.246Z,16.95
2022-12-23T07:37:58.118Z,16.58
2022-12-23T07:41:13.216Z,15.77
2022-12-23T07:44:29.341Z,16.77
2022-12-23T07:47:38.262Z,20.17
2022-12-23T07:50:54.272Z,18.37
2022-12-23T07:53:56.196Z,17.40
2022-12-23T07:57:11.311Z,16.87
2022-12-23T08:00:24.223Z,17.73
2022-12-23T08:03:32.959Z,17.70
2022-12-23T08:06:42.209Z,18.02
2022-12-23T08:09:57.206Z,16.58
2022-12-23T08:13:07.264Z,17.08
2022-12-23T08:16:22.270Z,15.67
2022-12-23T08:19:30.272Z,16.63
2022-12-23T08:22:45.570Z,17.95
2022-12-23T08:26:08.309Z,17.80
2022-12-23T08:29:16.226Z,19.27
2022-12-23T08:32:27.205Z,19.13
2022-12-23T08:35:42.263Z,19.67
2022-12-23T08:38:45.218Z,21.05
2022-12-23T08:42:01.236Z,19.48
2022-12-23T08:45:10.263Z,19.23
2022-12-23T08:48:25.345Z,19.90
2022-12-23T08:51:36.131Z,18.80
2022-12-23T08:54:51.232Z,20.48
2022-12-23T08:58:06.405Z,19.40
2022-12-23T09:01:12.688Z,21.12
2022-12-23T09:04:27.290Z,20.00
2022-12-23T09:07:42.242Z,19.00
2022-12-23T09:10:51.208Z,20.88
2022-12-23T09:14:02.650Z,24.17
2022-12-23T09:17:11.266Z,21.87
2022-12-23T09:20:34.292Z,21.83
2022-12-23T09:23:49.227Z,20.83
2022-12-23T09:27:04.328Z,20.52
2022-12-23T09:30:07.084Z,22.80
2022-12-23T09:33:23.260Z,20.88
2022-12-23T09:36:31.974Z,20.40
2022-12-23T09:39:40.313Z,21.30
2022-12-23T09:43:15.325Z,18.77
2022-12-23T09:46:29.362Z,17.98
2022-12-23T09:49:57.272Z,18.70
2022-12-23T09:53:12.920Z,18.33
2022-12-23T09:56:46.446Z,19.00
2022-12-23T10:00:11.387Z,20.08
2022-12-23T10:03:26.272Z,17.73
2022-12-23T10:06:37.359Z,18.48
2022-12-23T10:09:56.318Z,16.83
2022-12-23T10:13:02.077Z,19.13
2022-12-23T10:16:25.430Z,17.62
2022-12-23T10:19:38.258Z,18.90
2022-12-23T10:22:53.265Z,19.45
2022-12-23T10:26:12.394Z,18.13
2022-12-23T10:29:25.342Z,18.07
2022-12-23T10:33:01.373Z,18.67
2022-12-23T10:36:32.825Z,18.42
2022-12-23T10:40:00.378Z,17.98
2022-12-23T10:43:26.867Z,18.57
2022-12-23T10:47:09.369Z,18.63
2022-12-23T10:50:44.329Z,19.58
2022-12-23T10:53:59.021Z,21.00
2022-12-23T10:57:15.300Z,19.67
2022-12-23T11:00:22.367Z,20.43
2022-12-23T11:03:42.490Z,20.43
2022-12-23T11:06:55.844Z,20.23
2022-12-23T11:10:24.312Z,20.45
2022-12-23T11:13:36.365Z,18.77
2022-12-23T11:16:52.400Z,19.70
2022-12-23T11:20:27.565Z,20.97
2022-12-23T11:23:36.869Z,20.40
2022-12-23T11:26:56.305Z,20.45
2022-12-23T11:29:59.919Z,20.30
2022-12-23T11:33:32.308Z,21.97
2022-12-23T11:36:35.142Z,21.20
2022-12-23T11:39:53.323Z,20.67
2022-12-23T11:43:09.371Z,21.77
2022-12-23T11:46:27.738Z,22.52
2022-12-23T11:49:37.322Z,22.50
2022-12-23T11:53:08.288Z,20.93
2022-12-23T11:56:23.359Z,22.27
2022-12-23T11:59:44.368Z,22.25
2022-12-23T12:02:56.463Z,22.00
2022-12-23T12:06:09.352Z,23.60
2022-12-23T12:09:25.465Z,21.57
2022-12-23T12:12:41.375Z,21.12
2022-12-23T12:16:06.484Z,21.75
2022-12-23T12:19:28.350Z,20.55
2022-12-23T12:22:51.512Z,23.63
2022-12-23T12:26:12.371Z,23.83
2022-12-23T12:29:27.434Z,21.87
2022-12-23T12:32:50.581Z,24.80
2022-12-23T12:36:22.591Z,22.42
2022-12-23T12:39:44.466Z,24.13
2022-12-23T12:42:55.405Z,23.83
2022-12-23T12:46:50.358Z,24.52
2022-12-23T12:50:00.069Z,21.40
2022-12-23T12:53:24.325Z,22.23
2022-12-23T12:56:34.044Z,23.67
2022-12-23T12:59:50.438Z,23.37
2022-12-23T13:03:27.363Z,23.52
2022-12-23T13:06:56.645Z,22.50
2022-12-23T13:10:40.458Z,22.48
2022-12-23T13:14:19.382Z,23.10
2022-12-23T13:17:36.149Z,23.27
2022-12-23T13:20:52.381Z,23.55
2022-12-23T13:24:36.371Z,22.90
2022-12-23T13:27:55.544Z,21.67
2022-12-23T13:31:34.445Z,20.50
2022-12-23T13:35:03.288Z,23.10
2022-12-23T13:38:29.467Z,23.40
2022-12-23T13:41:45.242Z,23.05
2022-12-23T13:44:54.381Z,23.02
2022-12-23T13:48:32.416Z,22.27
2022-12-23T13:52:06.356Z,22.97
2022-12-23T13:55:26.044Z,21.75
2022-12-23T13:58:41.462Z,24.02
2022-12-23T14:01:47.651Z,23.58
2022-12-23T14:05:09.276Z,23.27
2022-12-23T14:08:26.923Z,26.67
2022-12-23T14:11:41.396Z,24.25
2022-12-23T14:15:03.652Z,22.15
2022-12-23T14:18:49.521Z,23.67
2022-12-23T14:22:21.385Z,20.97
2022-12-23T14:25:57.085Z,21.97
2022-12-23T14:29:25.378Z,20.40
2022-12-23T14:32:59.380Z,22.50
2022-12-23T14:36:23.087Z,22.05
2022-12-23T14:39:40.421Z,20.87
2022-12-23T14:42:49.174Z,20.57
2022-12-23T14:46:27.525Z,21.77
2022-12-23T14:49:41.168Z,21.42
2022-12-23T14:53:06.373Z,22.00
2022-12-23T14:57:01.412Z,21.53
2022-12-23T15:00:05.740Z,21.47
2022-12-23T15:03:22.558Z,22.08
2022-12-23T15:06:40.406Z,22.65
2022-12-23T15:10:00.731Z,21.75
2022-12-23T15:13:10.406Z,20.20
2022-12-23T15:16:26.465Z,23.90
2022-12-23T15:19:35.504Z,21.33
2022-12-23T15:22:51.229Z,22.23
2022-12-23T15:26:04.426Z,22.67
2022-12-23T15:29:14.445Z,21.63
2022-12-23T15:32:23.474Z,20.80
2022-12-23T15:35:35.820Z,20.85
2022-12-23T15:38:45.481Z,22.87
2022-12-23T15:42:00.420Z,22.30
2022-12-23T15:45:33.550Z,26.77
2022-12-23T15:48:48.470Z,21.67
2022-12-23T15:52:12.025Z,23.00
2022-12-23T15:55:28.998Z,23.25
2022-12-23T15:58:47.610Z,25.85
2022-12-23T16:01:51.437Z,22.30
2022-12-23T16:05:09.417Z,22.67
2022-12-23T16:08:33.542Z,22.65
2022-12-23T16:11:56.126Z,25.50
2022-12-23T16:15:27.522Z,23.50
2022-12-23T16:18:29.846Z,22.97
2022-12-23T16:21:44.478Z,21.67
2022-12-23T16:24:51.950Z,22.30
2022-12-23T16:28:19.467Z,22.17
2022-12-23T16:31:34.506Z,21.12
2022-12-23T16:34:48.548Z,21.60
2022-12-23T16:38:11.525Z,23.27
2022-12-23T16:41:19.732Z,23.08
2022-12-23T16:44:34.565Z,25.98
2022-12-23T16:47:43.467Z,22.25
2022-12-23T16:51:02.430Z,23.07
2022-12-23T16:54:10.573Z,22.60
2022-12-23T16:57:25.520Z,22.75
2022-12-23T17:00:35.650Z,22.05
2022-12-23T17:03:50.513Z,24.17
2022-12-23T17:06:59.148Z,24.40
2022-12-23T17:10:07.465Z,22.23
2022-12-23T17:13:18.788Z,22.75
2022-12-23T17:16:29.580Z,24.77
2022-12-23T17:19:44.455Z,23.48
2022-12-23T17:22:57.514Z,24.87
2022-12-23T17:26:12.475Z,22.77
2022-12-23T17:29:21.757Z,23.55
2022-12-23T17:32:36.577Z,24.42
2022-12-23T17:35:38.482Z,24.85
2022-12-23T17:38:53.538Z,23.90
2022-12-23T17:42:03.142Z,22.20
2022-12-23T17:45:35.571Z,22.00
2022-12-23T17:48:38.189Z,21.40
2022-12-23T17:51:52.483Z,22.50
2022-12-23T17:54:54.784Z,23.57
2022-12-23T17:58:09.513Z,22.37
2022-12-23T18:01:29.630Z,24.02
2022-12-23T18:04:38.256Z,24.20
2022-12-23T18:07:46.481Z,22.87
2022-12-23T18:10:58.235Z,22.27
2022-12-23T18:14:21.634Z,22.93
2022-12-23T18:17:23.573Z,24.15
2022-12-23T18:20:41.504Z,22.85
2022-12-23T18:23:57.535Z,23.70
2022-12-23T18:27:23.564Z,21.50
2022-12-23T18:30:33.578Z,20.97
2022-12-23T18:33:42.288Z,22.62
2022-12-23T18:36:57.472Z,23.17
2022-12-23T18:39:59.342Z,23.83
2022-12-23T18:43:25.532Z,25.87
2022-12-23T18:46:33.554Z,21.87
2022-12-23T18:49:48.558Z,23.95
2022-12-23T18:52:51.013Z,23.05
2022-12-23T18:56:05.557Z,20.95
2022-12-23T18:59:29.212Z,23.43
2022-12-23T19:02:47.623Z,23.77
2022-12-23T19:06:00.719Z,23.30
2022-12-23T19:09:16.389Z,24.25
2022-12-23T19:12:25.643Z,23.08
2022-12-23T19:15:34.486Z,25.60
2022-12-23T19:18:43.718Z,22.20
2022-12-23T19:22:05.513Z,21.17
2022-12-23T19:25:23.619Z,21.05
2022-12-23T19:28:32.586Z,22.20
2022-12-23T19:31:41.336Z,24.07
2022-12-23T19:34:50.562Z,21.53
2022-12-23T19:37:59.437Z,22.33
2022-12-23T19:41:09.560Z,21.20
2022-12-23T19:44:18.449Z,21.05
2022-12-23T19:47:26.573Z,22.37
2022-12-23T19:50:35.877Z,21.17
2022-12-23T19:53:46.539Z,21.83
2022-12-23T19:57:01.574Z,20.95
2022-12-23T20:00:11.553Z,19.67
2022-12-23T20:03:26.814Z,20.83
2022-12-23T20:06:40.597Z,19.77
2022-12-23T20:09:55.597Z,19.85
2022-12-23T20:13:03.541Z,20.85
2022-12-23T20:16:13.245Z,22.87
2022-12-23T20:19:28.771Z,20.77
2022-12-23T20:22:50.600Z,19.10
2022-12-23T20:25:59.824Z,20.60
2022-12-23T20:29:08.643Z,20.90
2022-12-23T20:32:17.680Z,18.58
2022-12-23T20:35:25.709Z,20.30
2022-12-23T20:38:42.278Z,20.63
2022-12-23T20:41:50.735Z,20.27
2022-12-23T20:44:59.468Z,19.87
2022-12-23T20:48:08.774Z,20.05
2022-12-23T20:51:26.607Z,21.60
2022-12-23T20:54:35.383Z,20.13
2022-12-23T20:57:43.709Z,20.02
2022-12-23T21:00:58.600Z,19.30
2022-12-23T21:04:17.652Z,20.98
2022-12-23T21:07:26.605Z,19.57
2022-12-23T21:10:37.553Z,21.20
2022-12-23T21:13:58.684Z,21.35
2022-12-23T21:17:09.229Z,20.60
2022-12-23T21:20:24.641Z,20.33
2022-12-23T21:23:44.847Z,20.03
2022-12-23T21:26:56.490Z,19.40
2022-12-23T21:30:05.623Z,17.77
2022-12-23T21:33:21.648Z,18.85
2022-12-23T21:36:34.666Z,18.55
2022-12-23T21:39:43.286Z,19.50
2022-12-23T21:42:51.688Z,20.50
2022-12-23T21:46:03.747Z,18.67
2022-12-23T21:49:12.611Z,17.87
2022-12-23T21:52:27.635Z,18.58
2022-12-23T21:55:29.511Z,20.27
2022-12-23T21:58:45.722Z,18.37
2022-12-23T22:01:47.950Z,18.90
2022-12-23T22:05:02.666Z,19.23
2022-12-23T22:08:04.585Z,18.15
2022-12-23T22:11:24.631Z,19.40
2022-12-23T22:14:39.625Z,18.40
2022-12-23T22:17:48.452Z,19.77
2022-12-23T22:21:00.775Z,20.15
2022-12-23T22:24:22.631Z,19.40
2022-12-23T22:27:24.793Z,18.73
2022-12-23T22:30:39.682Z,19.57
2022-12-23T22:33:48.254Z,18.87
2022-12-23T22:37:02.666Z,21.45
2022-12-23T22:40:18.660Z,18.92
2022-12-23T22:43:27.255Z,19.97
2022-12-23T22:46:41.685Z,20.57
2022-12-23T22:49:43.847Z,18.40
2022-12-23T22:52:58.665Z,16.92
2022-12-23T22:56:08.105Z,16.83
2022-12-23T22:59:29.634Z,18.77
2022-12-23T23:02:31.875Z,16.80
2022-12-23T23:05:46.709Z,16.65
2022-12-23T23:08:56.723Z,16.85
2022-12-23T23:12:11.682Z,16.75
2022-12-23T23:15:26.644Z,16.17
2022-12-23T23:18:29.611Z,17.43
2022-12-23T23:21:45.686Z,16.58
2022-12-23T23:25:00.746Z,20.27
2022-12-23T23:28:15.657Z,20.27
2022-12-23T23:31:41.422Z,17.73
2022-12-23T23:34:52.704Z,19.23
2022-12-23T23:38:07.673Z,20.15
2022-12-23T23:41:09.949Z,19.98
2022-12-23T23:44:24.645Z,19.55
2022-12-23T23:47:32.659Z,21.13
2022-12-23T23:50:49.670Z,20.17
2022-12-23T23:53:51.745Z,20.23
2022-12-23T23:57:06.965Z,18.62
